Aviation Fuel Pricing for Canadians
Please upgrade your browser - Tested with IE9, FireFox, Chrome, Safari

Fuel Airports Other Help
Prices Economy Info List METAR/TAF Kneeboard Help

Reference Airport: Victoria Intl, BC
N 48 38 50   W 123 25 33

Enter a list of
Airport Idents:
Sort Method: As Entered    By Ident   

METAR CYVR 221900Z 18008G18KT 110V260 10SM RA FEW007 FEW013 SCT022 OVC027 06/04 A2952 RMK SF1SC1SC2SC4 SLP997
TAF CYVR 221738Z 2218/2324 20012KT 6SM -RA BR SCT010 OVC025 TEMPO 2218/2222 3SM -RA BR BKN006 OVC015 FM222200 20010KT P6SM SCT020 BKN030 TEMPO 2222/2306 P6SM -SHRA BKN020 OVC030 BECMG 2300/2302 10012G22KT FM230600 10012G22KT P6SM -SHRA BKN025 OVC040 FM230900 12015G25KT P6SM -SHRA BKN015 OVC025 FM231800 13012KT P6SM BKN030 TEMPO 2318/2324 VRB15G25KT 4SM -RA BR BKN020 PROB30 2318/2324 4SM -TSRA BR BKN020CB RMK NXT FCST BY 222100Z
METAR CYXX 221900Z 18018KT 8SM RA FEW005 FEW015 OVC030 07/05 A2953 RMK SF1SF1NS7 SF TR SLP001
TAF AMD CYXX 221909Z 2219/2318 18015KT 6SM -RA BR SCT015 OVC030 TEMPO 2219/2302 2SM -RA BR BKN015 OVC030 FM230200 19008KT P6SM -SHRA SCT015 BKN030 BECMG 2304/2306 08008KT RMK NXT FCST BY 230000Z
METAR KBLI 221853Z 16015G22KT 9SM -RA BKN019 OVC030 07/05 A2952 RMK AO2 PK WND 15026/1832 SLP003 P0003 T00670050
TAF KBLI 221900Z 2219/2318 15015G24KT P6SM -RA SCT015 OVC030 FM222200 18011KT P6SM -SHRA OVC030 FM230600 14012G20KT P6SM -SHRA BKN030 BKN050